NWS Home NWS Lubbock West Texas Mesonet Latest Conditions as of 0651 AM, Thu Feb 11, 2016

Latest   N   C   S   Daily Sum   3hrΔ   24hrΔ   Soil Data 
Site Map   24hr Precip   72hr Precip   Google Plot


Station Time of Last Temp Dew Pt. RH Wind Direction Wind Speed Wind Gust Max Wind Max Temp Min Temp Max RH Min RH Altimeter 1HR Rain Today's Rain Solar Rad Wind ChillRed Flag
Abernathy 5ENE  06:45 AM 31 20 64% N1214 15 mph 348° @ 0625 AM 41 30 64 40 30.11" 0 0 0 22  
Aiken 3WSW  06:45 AM 32 18 56% N1417 18 mph 311° @ 0349 AM 45 30 61 36 30.12" 0 0 0 22  
Amarillo 15NNW   06:45 AM 37 19 48% N99 23 mph 29° @ 1249 AM 44 33 48 30 30.20" 0 0 0    
Amarillo 7SSE  06:45 AM 37 20 51% N912 15 mph 355° @ 0535 AM 40 30 55 41 30.18" 0 0 0    
Amarillo 9NNE  06:45 AM 25 18 74% S11 20 mph 3° @ 0102 AM 39 23 75 40 30.19" 0 0 0    
Amherst 1NE  06:45 AM 34 16 48% NW1518 19 mph 326° @ 0640 AM 47 34 48 28 30.14" 0 0 0 24  
Andrews 2E  06:45 AM 47 16 30% W911 14 mph 236° @ 0105 AM 52 40 49 27 30.13" 0 0 0    
Anton 6SSW  06:45 AM 32 17 53% NW1516 16 mph 312° @ 0645 AM 46 32 55 31 30.12" 0 0 0 22  
Aspermont 3NE  06:45 AM 43 22 43% W89 20 mph 226° @ 0315 AM 57 43 43 25 30.09" 0 0 0    
Big Bend NP - Persimmon Gap  06:45 AM 39 11 30% SW22 6 mph 230° @ 1234 AM 53 36 32 20 30.20" 0 0 0    
Big Lake 1WNW  06:45 AM 44 24 46% S56 13 mph 187° @ 0248 AM 51 44 46 37 30.15" 0 0 0    
Bootleg 11WNW  06:45 AM 35 15 44% N1315 24 mph 317° @ 0202 AM 51 34 44 22 30.22" 0 0 0 26  
Boys Ranch 1WSW  06:45 AM 32 18 55% NW66 13 mph 332° @ 0351 AM 39 29 59 35 30.21" 0 0 0 27  
Brownfield 2S  06:45 AM 36 19 49% NW1113 18 mph 245° @ 1225 AM 47 35 50 30 30.11" 0 0 0    
Canadian 6E  06:45 AM 37 26 65% N1517 21 mph 8° @ 0633 AM 47 37 65 31 30.14" 0 0 0    
Caprock Canyons State Park  06:45 AM 47 22 37% N810 36 mph 258° @ 0106 AM 63 43 39 15 30.15" 0 0 0   8
Childress 2NNE  06:45 AM 39 22 51% N911 21 mph 255° @ 0120 AM 59 39 51 21 30.12" 0 0 0    
Clarendon 2WSW  06:45 AM 36 23 59% N45 25 mph 349° @ 0110 AM 57 35 61 22 30.14" 0 0 0    
Claude 12SW  06:45 AM 38 22 53% N1416 20 mph 325° @ 0233 AM 54 34 56 22 30.15" 0 0 0    
Clyde 2WNW  06:45 AM 55 26 32% SW1415 26 mph 232° @ 0427 AM 59 54 33 27 30.09" 0 0 0    
Coyanosa 2N  06:45 AM 35 21 56% N45 14 mph 200° @ 1227 AM 47 35 62 39 30.16" 0 0 0    
Dell City  06:45 AM 30 16 56% W23 10 mph 314° @ 1232 AM 42 28 61 36 30.25" 0 0 0    
Denver City 7WNW  06:45 AM 41 19 40% NW1517 20 mph 315° @ 0630 AM 44 36 47 34 30.12" 0 0 0    
Dimmitt 2NE  06:45 AM 31 18 60% NW1213 22 mph 241° @ 1225 AM 46 31 60 32 30.15" 0 0 0 22  
Dora NM 2SW  06:45 AM 37 13 37% NW1314 22 mph 283° @ 0400 AM 46 37 37 28 30.18" 0 0 0    
Dozier 3W  06:45 AM 45 26 47% N79 18 mph 351° @ 0358 AM 60 43 47 22 30.15" 0 0 0    
Floydada 2NNE  06:45 AM 34 20 55% NE1113 14 mph 21° @ 0625 AM 43 28 65 32 30.10" 0 0 0 26  
Fluvanna 3WNW  06:45 AM 41 20 43% SW35 17 mph 222° @ 0135 AM 51 41 44 30 30.10" 0 0 0    
Fort Chadbourne  06:45 AM 43 25 50% SW34 9 mph 229° @ 0532 AM 54 39 56 33 30.11" 0 0 0    
Fort Lancaster  06:45 AM 33 23 65% W34 15 mph 95° @ 1223 AM 62 33 65 25 30.16" 0 0 0    
Fort McKavett  06:45 AM 46 27 49% SW33 15 mph 199° @ 0219 AM 56 45 49 33 30.15" 0 0 0    
Friona 2NE  06:40 AM 32 16 51% N811 18 mph 251° @ 1255 AM 42 28 61 33 30.18" 0 0 0 25  
Gail 2ESE  06:45 AM 47 19 33% W815 20 mph 252° @ 0410 AM 52 41 44 30 30.09" 0 0 0    
Goodlett 3W  06:45 AM 44 24 45% N1114 18 mph 5° @ 0620 AM 52 41 51 32 30.10" 0 0 0    
Goodnight  06:45 AM 40 23 52% N1314 31 mph 350° @ 0108 AM 50 39 52 31 30.17" 0 0 0    
Graham 5SSW  06:45 AM 36 19 50% W1213 17 mph 256° @ 0515 AM 49 36 50 29 30.10" 0 0 0    
Guadalupe Mtns Natl Park  06:45 AM 55 11 17% W1720 36 mph 287° @ 0433 AM 57 54 18 12 30.23" 0 0 0   16
Guthrie 10WSW  06:45 AM 42 19 40% NW810 20 mph 238° @ 0410 AM 52 42 40 28 30.09" 0 0 0    
Hart 3N  06:45 AM 36 19 51% N1419 23 mph 4° @ 0605 AM 38 29 61 42 30.15" 0 0 0    
Haskell 1NW  06:45 AM 42 25 51% SW23 23 mph 316° @ 0545 AM 51 40 54 33 30.08" 0 0 0    
Hereford 2NW  06:45 AM 31 16 53% NW810 15 mph 10° @ 0455 AM 40 30 53 34 30.17" 0 0 0 23  
Hobbs NM 5NW  06:45 AM 41 20 42% NW1315 17 mph 309° @ 0641 AM 42 37 50 36 30.15" 0 0 0    
Jayton 1SSE  06:45 AM 40 22 49% NW15 14 mph 282° @ 0400 AM 54 39 50 27 30.10" 0 0 0    
Junction 1SSW  06:46 AM 30 26 88% SW22 8 mph 184° @ 1209 AM 45 28 89 51 30.16" 0 0 0    
Knox City 3NW  06:45 AM 43 23 47% SW45 16 mph 203° @ 0605 AM 52 38 57 30 30.08" 0 0 0    
Lake Alan Henry 1NW  06:45 AM 45 20 37% NW02 23 mph 234° @ 0204 AM 57 43 39 23 30.10" 0 0 0    
Lamesa 2SE  06:45 AM 39 20 48% W1112 14 mph 279° @ 0610 AM 43 33 64 43 30.11" 0 0 0    
Levelland 4S  06:45 AM 33 17 52% NW810 16 mph 239° @ 0140 AM 42 28 58 32 30.12" 0 0 0 26  
Lomax 1SSE  06:45 AM 34 22 59% SW23 19 mph 194° @ 1208 AM 54 34 62 29 30.13" 0 0 0    
Lubbock 3WNW TTU  06:45 AM 33 17 50% NW810 17 mph 243° @ 0125 AM 49 31 51 26 30.11" 0 0 0 26  
McLean 1E  06:45 AM 40 23 51% N911 18 mph 358° @ 0525 AM 54 40 51 19 30.14" 0 0 0    
Memphis 1NE  06:45 AM 44 25 47% N911 17 mph 333° @ 0125 AM 54 43 47 26 30.14" 0 0 0    
Menard 2NW   06:45 AM 42 27 54% W55 12 mph 233° @ 0231 AM 55 42 54 35 30.14" 0 0 0    
Mertzon 3NNE  06:45 AM 44 25 48% S911 19 mph 205° @ 1209 AM 55 44 48 32 30.14" 0 0 0    
Morton 1ENE  06:45 AM 37 16 43% NW1518 20 mph 248° @ 1240 AM 49 33 55 27 30.14" 0 0 0    
Muleshoe 2SSW  06:45 AM 39 18 42% N813 17 mph 350° @ 0620 AM 47 29 60 30 30.17" 0 0 0    
Northfield 1S  06:45 AM 45 22 40% N1013 21 mph 243° @ 1205 AM 60 44 40 21 30.12" 0 0 0    
O'Donnell 1N  06:45 AM 31 18 60% W89 13 mph 240° @ 0130 AM 42 31 60 38 30.10" 0 0 0 24  
Odell 4ENE  06:45 AM 38 29 70% N89 19 mph 344° @ 1245 AM 51 38 70 37 30.11" 0 0 0    
Olton 6S  06:45 AM 32 18 56% N1417 17 mph 353° @ 0645 AM 41 28 62 39 30.13" 0 0 0 22  
Paducah 10SW  06:45 AM 42 21 43% N1012 29 mph 251° @ 0225 AM 62 42 43 19 30.11" 0 0 0    
Palo Duro Canyon SP Floor  06:45 AM 43 22 43% W46 20 mph 5° @ 0153 AM 50 37 44 29 30.16" 0 0 0    
Palo Duro Canyon State Park Rim  06:45 AM 41 21 44% N1218 21 mph 27° @ 0144 AM 47 40 44 30 30.17" 0 0 0    
Pampa 2E  06:45 AM 36 25 64% N1315 17 mph 340° @ 0505 AM 44 36 64 30 30.16" 0 0 0    
Panhandle 1SSW  06:45 AM 37 22 53% N1012 23 mph 355° @ 1228 AM 47 33 58 29 30.18" 0 0 0    
Plains 3N  06:45 AM 42 17 36% NW1621 21 mph 307° @ 0645 AM 43 34 51 36 30.13" 0 0 0    
Plainview 1S  06:45 AM 37 21 51% N1217 17 mph 6° @ 0645 AM 46 32 57 32 30.12" 0 0 0    
Post 1NE  06:45 AM 44 18 36% W1011 27 mph 242° @ 0230 AM 54 42 39 24 30.10" 0 0 0    
Ralls 1SE  06:45 AM 34 17 50% N812 15 mph 248° @ 1205 AM 47 33 52 32 30.10" 0 0 0 27  
Reese Center  06:45 AM 34 17 50% NW1214 16 mph 327° @ 0625 AM 43 31 58 33 30.11" 0 0 0 25  
Roaring Springs 3N  06:45 AM 45 20 38% N1418 24 mph 255° @ 0300 AM 54 42 41 24 30.11" 0 0 0    
San Angelo 7NW  06:45 AM 50 23 35% SW24 10 mph 246° @ 0600 AM 56 49 35 25 30.12" 0 0 0    
Seagraves 1SW  06:45 AM 39 21 49% NW1012 14 mph 315° @ 0625 AM 47 32 58 33 30.11" 0 0 0    
Seminole 2NNE  06:45 AM 41 20 42% W912 16 mph 242° @ 1220 AM 52 37 47 25 30.12" 0 0 0    
Seymour 3NW  06:45 AM 39 28 65% SW45 15 mph 208° @ 0210 AM 52 37 71 35 30.07" 0 0 0    
Slaton 2NE  06:45 AM 31 16 54% N35 23 mph 234° @ 1215 AM 51 31 54 26 30.10" 0 0 0    
Snyder 3E  06:45 AM 45 23 42% SW89 16 mph 187° @ 1215 AM 49 44 45 34 30.10" 0 0 0    
Snyder 3SSW  06:45 AM 40 23 51% W22 14 mph 198° @ 1256 AM 49 38 54 35 30.11" 0 0 0    
Spur 1W  06:45 AM 31 21 66% NW910 13 mph 237° @ 0330 AM 51 31 66 28 30.09" 0 0 0 23  
St. Lawrence 5SW  06:10 AM 38 23 56% SW910 14 mph 208° @ 1210 AM 47 38 56 37 30.12" 0 0 0    
Sterling City 4WSW  06:45 AM 49 24 37% SW67 25 mph 198° @ 0410 AM 53 47 40 32 30.13" 0 0 0    
Sundown 8WSW  06:45 AM 39 17 41% NW1418 18 mph 310° @ 0635 AM 49 35 45 26 30.12" 0 0 0    
Sweetwater 11SW   06:45 AM 51 25 36% SW56 29 mph 219° @ 1247 AM 59 46 43 25 30.12" 0 0 0    
Tahoka 3NNE  06:45 AM 37 17 44% NW88 18 mph 235° @ 1245 AM 47 37 44 32 30.10" 0 0 0    
Tarzan 2WNW  06:45 AM 34 23 65% NW44 14 mph 206° @ 1239 AM 47 34 65 38 30.12" 0 0 0    
Tatum NM 2SW  06:45 AM 36 18 47% NW911 22 mph 291° @ 0405 AM 47 35 50 32 30.16" 0 0 0    
Tulia 2ENE  06:45 AM 32 21 63% NW1012 31 mph 306° @ 0250 AM 46 30 65 35 30.15" 0 0 0 24  
Turkey 2WSW  06:45 AM 42 21 43% NW1214 31 mph 248° @ 1245 AM 59 41 44 19 30.13" 0 0 0    
Umbarger 3NNE  06:45 AM 37 19 48% N1314 18 mph 8° @ 0519 AM 39 27 61 39 30.18" 0 0 0    
Wall 1E  06:45 AM 48 25 41% SW89 25 mph 205° @ 0325 AM 56 48 41 30 30.12" 0 0 0    
Weinert 2NNE  06:45 AM 43 26 51% SW1112 14 mph 227° @ 0118 AM 49 38 59 40 30.07" 0 0 0    
White River Lake 6NW  06:45 AM 40 17 40% NW1214 26 mph 238° @ 0150 AM 60 40 40 18 30.09" 0 0 0    
Wolfforth 6SSW  06:45 AM 35 17 47% NW1113 15 mph 215° @ 0200 AM 44 32 49 31 30.11" 0 0 0 27  

West Texas Mesonet Home   Site Map/Menu  NWS Lubbock Soil Data  Daily Summary Page  24hr Precip  72hr Precip  Google Plot